WARM SPRINGS (USACE) (WRS)

Elevation: 440' · RUSSIAN R basin · Operator: US Army Corps of Engineers

Provisional data, subject to change.
Query executed Friday at 13:39:11   clock

Select a sensor type for a plot of data.
Note: Reservoir Flows are daily averages.

Earlier

Date RES ELE    STORAGE    RES CHG    TOC STO    ABV TOC    OUTFLOW    INFLOW    PPT INC    TEMP MN    TEMP MX    EVP PAN   
 FEET   AF   AF   AF   AF   CFS   CFS   INCHES   DEG F   DEG F   INCHES  
04/07/2016 451.41 245966 -185 245000 966 236 151 0.00 9 24 0.10
04/08/2016 451.34 245781 -185 245000 781 236 152 0.00 10 25 0.11
04/09/2016 451.29 245649 -132 245000 649 236 172 0.02 13 15 0.03
04/10/2016 451.20 245411 -238 245000 411 236 121 0.01 11 17 0.05
04/11/2016 451.13 245226 -185 245000 226 236 150 0.02 12 20 0.09
04/12/2016 451.05 245015 -211 245000 15 199 103 0.00 10 23 0.14
04/13/2016 451.01 244910 -105 245000 -90 151 109 0.17 9 23 0.15
04/14/2016 450.97 244804 -106 245000 -196 151 107 0.04 5 20 0.12
04/15/2016 450.93 244699 -105 245000 -301 111 70 0.03 5 26 0.16
04/16/2016 450.91 244646 -53 245000 -354 81 68 0.07 10 33 0.18
04/17/2016 450.89 244593 -53 245000 -407 81 68 0.00 7 32 0.18
04/18/2016 450.87 244541 -52 245000 -459 81 69 0.00 9 32 0.19
04/19/2016 450.85 244488 -53 245000 -512 81 67 0.00 8 31 0.17
04/20/2016 450.82 244409 -79 245000 -591 81 52 0.00 5 26 0.14
04/21/2016 450.81 244383 -26 245000 -617 79 75 0.06 11 22 0.12
04/22/2016 450.88 244567 184 245000 -433 80 179 0.84 8 17 0.08
04/23/2016 450.86 244514 -53 245000 -486 81 64 0.00 6 23 0.13
04/24/2016 450.84 244462 -52 245000 -538 81 68 0.01 11 21 0.18
04/25/2016 450.80 244356 -106 245000 -644 81 42 0.00 8 22 0.19
04/26/2016 450.77 244277 -79 245000 -723 76 50 0.01 9 24 0.18
04/27/2016 450.75 244225 -52 245000 -775 76 59 0.06 6 20 0.13
04/28/2016 450.71 244119 -106 245000 -881 77 39 0.00 10 29 0.22
04/29/2016 450.68 244040 -79 245000 -960 77 53 0.00 12 26 0.21
04/30/2016 450.63 243909 -131 245000 -1091 81 31 0.00 9 28 0.21
05/01/2016 450.59 243804 -105 245000 -1196 82 46 0.02 12 32 0.22
05/02/2016 450.53 243646 -158 245000 -1354 81 16 0.00 7 27 0.19
05/03/2016 450.49 243541 -105 245000 -1459 84 41 0.00 9 26 0.12
05/04/2016 450.45 243436 -105 245000 -1564 87 45 0.00 12 24 0.15
05/05/2016 450.44 243409 -27 245000 -1591 86 78 0.00 12 21 0.08
05/06/2016 -- -- -- -- -- -- -- -- -- -- --

Later | Latest

Warning! This data is preliminary and subject to revision.

Show WRS Map | Plot WRS Data | 1 Month WRS Data | Real-Time WRS Data | WRS Info